createdAt,value
2022-12-04T00:04:51.016Z,1.28
2022-12-04T00:09:54.274Z,1.27
2022-12-04T00:20:20.245Z,1.28
2022-12-04T00:25:23.053Z,1.27
2022-12-04T00:30:25.895Z,1.26
2022-12-04T00:35:28.785Z,1.26
2022-12-04T00:40:31.627Z,1.25
2022-12-04T00:45:34.697Z,1.23
2022-12-04T00:50:37.774Z,1.25
2022-12-04T00:55:42.693Z,1.23
2022-12-04T01:00:46.196Z,1.23
2022-12-04T01:05:49.124Z,1.19
2022-12-04T01:10:52.410Z,1.21
2022-12-04T01:15:55.341Z,1.23
2022-12-04T01:20:58.203Z,1.21
2022-12-04T01:26:01.284Z,1.21
2022-12-04T01:31:13.692Z,1.22
2022-12-04T01:36:21.073Z,1.20
2022-12-04T01:41:27.091Z,1.17
2022-12-04T01:46:30.065Z,1.13
2022-12-04T01:51:42.034Z,1.12
2022-12-04T01:57:07.862Z,1.16
2022-12-04T02:02:13.478Z,1.17
2022-12-04T02:07:18.503Z,1.16
2022-12-04T02:12:32.965Z,1.17
2022-12-04T02:18:12.804Z,1.21
2022-12-04T02:23:19.736Z,1.26
2022-12-04T02:28:53.823Z,1.22
2022-12-04T02:34:07.673Z,1.22
2022-12-04T02:39:23.233Z,1.23
2022-12-04T02:44:39.416Z,1.21
2022-12-04T02:49:46.618Z,1.18
2022-12-04T02:54:54.141Z,1.18
2022-12-04T02:59:57.493Z,1.18
2022-12-04T03:05:04.817Z,1.17
2022-12-04T03:10:40.673Z,1.14
2022-12-04T03:15:46.482Z,1.11
2022-12-04T03:20:57.282Z,1.10
2022-12-04T03:26:28.619Z,1.08
2022-12-04T03:31:56.794Z,1.05
2022-12-04T03:37:04.453Z,1.07
2022-12-04T03:42:16.504Z,1.09
2022-12-04T03:47:40.048Z,1.08
2022-12-04T03:53:04.725Z,1.05
2022-12-04T03:58:12.299Z,1.06
2022-12-04T04:03:22.854Z,1.12
2022-12-04T04:08:33.987Z,1.12
2022-12-04T04:14:23.968Z,1.06
2022-12-04T04:19:48.476Z,1.01
2022-12-04T04:24:59.769Z,1.01
2022-12-04T04:30:05.037Z,1.00
2022-12-04T04:35:22.390Z,0.97
2022-12-04T04:40:54.612Z,0.97
2022-12-04T04:46:08.574Z,1.00
2022-12-04T04:51:12.069Z,1.02
2022-12-04T04:56:15.023Z,1.00
2022-12-04T05:01:20.208Z,1.04
2022-12-04T05:06:23.973Z,1.02
2022-12-04T05:11:26.764Z,0.99
2022-12-04T05:16:29.740Z,0.99
2022-12-04T05:21:33.277Z,1.05
2022-12-04T05:26:36.069Z,1.09
2022-12-04T05:31:38.886Z,1.05
2022-12-04T05:36:43.048Z,1.00
2022-12-04T05:41:45.885Z,0.99
2022-12-04T05:46:49.846Z,1.02
2022-12-04T05:51:52.754Z,1.03
2022-12-04T05:56:55.622Z,1.03
2022-12-04T06:01:58.668Z,1.01
2022-12-04T06:07:01.582Z,1.04
2022-12-04T06:12:05.951Z,1.02
2022-12-04T06:17:08.747Z,1.02
2022-12-04T06:22:11.565Z,1.04
2022-12-04T06:27:29.705Z,1.09
2022-12-04T06:32:32.649Z,1.10
2022-12-04T06:37:35.478Z,1.11
2022-12-04T06:42:38.759Z,1.11
2022-12-04T06:47:41.861Z,1.07
2022-12-04T06:52:44.666Z,1.04
2022-12-04T06:57:48.646Z,1.03
2022-12-04T07:02:51.623Z,1.04
2022-12-04T07:07:54.657Z,1.07
2022-12-04T07:12:57.555Z,1.02
2022-12-04T07:18:00.493Z,1.03
2022-12-04T07:23:07.262Z,1.05
2022-12-04T07:28:11.616Z,1.08
2022-12-04T07:33:17.334Z,1.09
2022-12-04T07:38:20.336Z,1.10
2022-12-04T07:43:24.100Z,1.12
2022-12-04T07:48:33.039Z,1.12
2022-12-04T07:53:36.578Z,1.12
2022-12-04T07:58:39.949Z,1.06
2022-12-04T08:03:48.007Z,1.08
2022-12-04T08:08:51.882Z,1.06
2022-12-04T08:14:04.312Z,1.09
2022-12-04T08:19:09.044Z,1.08
2022-12-04T08:24:11.850Z,1.07
2022-12-04T08:29:16.348Z,1.13
2022-12-04T08:34:19.193Z,1.15
2022-12-04T08:39:23.037Z,1.18
2022-12-04T08:44:26.819Z,1.20
2022-12-04T08:49:30.468Z,1.27
2022-12-04T08:54:36.271Z,1.29
2022-12-04T08:59:39.465Z,1.29
2022-12-04T09:04:42.530Z,1.30
2022-12-04T09:09:55.253Z,1.36
2022-12-04T09:14:58.261Z,1.39
2022-12-04T09:20:01.670Z,1.36
2022-12-04T09:25:07.848Z,1.39
2022-12-04T09:30:11.823Z,1.40
2022-12-04T09:35:14.771Z,1.46
2022-12-04T09:40:35.198Z,1.48
2022-12-04T09:45:47.897Z,1.48
2022-12-04T09:50:52.413Z,1.50
2022-12-04T09:56:01.133Z,1.53
2022-12-04T10:01:04.083Z,1.52
2022-12-04T10:06:28.303Z,1.54
2022-12-04T10:12:06.022Z,1.63
2022-12-04T10:17:32.436Z,1.72
2022-12-04T10:22:50.473Z,1.78
2022-12-04T10:28:12.367Z,1.79
2022-12-04T10:33:18.275Z,1.82
2022-12-04T10:38:26.093Z,1.83
2022-12-04T10:43:40.420Z,1.82
2022-12-04T10:48:44.211Z,1.82
2022-12-04T10:53:49.470Z,1.84
2022-12-04T10:59:16.014Z,1.81
2022-12-04T11:04:27.612Z,1.78
2022-12-04T11:09:30.475Z,1.81
2022-12-04T11:14:33.287Z,1.86
2022-12-04T11:19:36.539Z,1.86
2022-12-04T11:24:40.243Z,1.85
2022-12-04T11:29:43.462Z,1.86
2022-12-04T11:34:46.315Z,1.90
2022-12-04T11:39:51.488Z,1.91
2022-12-04T11:44:56.080Z,1.91
2022-12-04T11:50:34.623Z,1.93
2022-12-04T11:55:53.242Z,1.94
2022-12-04T12:01:22.210Z,1.95
2022-12-04T12:06:37.088Z,1.91
2022-12-04T12:11:55.675Z,1.89
2022-12-04T12:17:39.384Z,1.92
2022-12-04T12:22:53.738Z,1.93
2022-12-04T12:28:41.893Z,1.90
2022-12-04T12:34:34.567Z,1.96
2022-12-04T12:39:57.460Z,1.99
2022-12-04T12:45:21.845Z,1.97
2022-12-04T12:50:35.489Z,1.95
2022-12-04T12:55:54.402Z,1.93
2022-12-04T13:01:19.801Z,1.94
2022-12-04T13:06:33.822Z,1.88
2022-12-04T13:11:38.032Z,1.86
2022-12-04T13:16:51.288Z,1.87
2022-12-04T13:22:02.124Z,1.92
2022-12-04T13:27:47.996Z,1.92
2022-12-04T13:33:22.903Z,1.91
2022-12-04T13:38:44.711Z,1.89
2022-12-04T13:43:52.117Z,1.90
2022-12-04T13:48:55.162Z,1.88
2022-12-04T13:54:28.265Z,1.80
2022-12-04T13:59:37.937Z,1.81
2022-12-04T14:04:47.050Z,1.77
2022-12-04T14:09:55.772Z,1.73
2022-12-04T14:15:00.618Z,1.66
2022-12-04T14:20:25.871Z,1.60
2022-12-04T14:25:39.785Z,1.65
2022-12-04T14:30:42.739Z,1.67
2022-12-04T14:36:11.249Z,1.64
2022-12-04T14:41:14.514Z,1.63
2022-12-04T14:46:24.636Z,1.61
2022-12-04T14:51:36.136Z,1.58
2022-12-04T14:56:44.572Z,1.56
2022-12-04T15:02:11.078Z,1.57
2022-12-04T15:07:29.010Z,1.59
2022-12-04T15:12:35.008Z,1.54
2022-12-04T15:17:38.449Z,1.50
2022-12-04T15:22:41.365Z,1.50
2022-12-04T15:27:44.240Z,1.51
2022-12-04T15:32:49.406Z,1.57
2022-12-04T15:37:52.281Z,1.55
2022-12-04T15:43:07.063Z,1.49
2022-12-04T15:48:09.934Z,1.47
2022-12-04T15:53:20.035Z,1.50
2022-12-04T15:58:30.244Z,1.48
2022-12-04T16:03:41.606Z,1.47
2022-12-04T16:08:47.412Z,1.47
2022-12-04T16:14:08.250Z,1.46
2022-12-04T16:19:33.406Z,1.39
2022-12-04T16:24:36.311Z,1.36
2022-12-04T16:29:39.227Z,1.34
2022-12-04T16:34:42.076Z,1.34
2022-12-04T16:39:45.027Z,1.35
2022-12-04T16:44:48.144Z,1.32
2022-12-04T16:49:53.244Z,1.31
2022-12-04T16:54:58.491Z,1.32
2022-12-04T17:00:06.564Z,1.27
2022-12-04T17:05:19.299Z,1.26
2022-12-04T17:10:24.306Z,1.23
2022-12-04T17:15:27.917Z,1.25
2022-12-04T17:20:31.812Z,1.27
2022-12-04T17:25:35.413Z,1.24
2022-12-04T17:30:38.543Z,1.18
2022-12-04T17:35:43.485Z,1.18
2022-12-04T17:40:48.586Z,1.17
2022-12-04T17:45:52.208Z,1.17
2022-12-04T17:51:18.239Z,1.15
2022-12-04T17:56:24.242Z,1.16
2022-12-04T18:01:28.969Z,1.17
2022-12-04T18:06:34.456Z,1.16
2022-12-04T18:11:41.295Z,1.15
2022-12-04T18:16:47.088Z,1.17
2022-12-04T18:21:50.357Z,1.21
2022-12-04T18:26:53.606Z,1.23
2022-12-04T18:31:57.518Z,1.23
2022-12-04T18:37:00.352Z,1.25
2022-12-04T18:42:04.106Z,1.28
2022-12-04T18:47:07.574Z,1.28
2022-12-04T18:52:10.361Z,1.24
2022-12-04T18:57:13.557Z,1.29
2022-12-04T19:02:17.840Z,1.32
2022-12-04T19:07:22.612Z,1.34
2022-12-04T19:12:25.813Z,1.29
2022-12-04T19:17:31.016Z,1.29
2022-12-04T19:22:33.888Z,1.32
2022-12-04T19:27:39.045Z,1.28
2022-12-04T19:32:41.871Z,1.22
2022-12-04T19:37:52.385Z,1.21
2022-12-04T19:43:02.503Z,1.25
2022-12-04T19:48:05.802Z,1.26
2022-12-04T19:53:08.910Z,1.24
2022-12-04T19:58:11.848Z,1.23
2022-12-04T20:03:14.697Z,1.26
2022-12-04T20:08:17.691Z,1.25
2022-12-04T20:13:24.244Z,1.21
2022-12-04T20:18:27.211Z,1.23
2022-12-04T20:23:30.108Z,1.28
2022-12-04T20:28:34.286Z,1.30
2022-12-04T20:33:37.137Z,1.31
2022-12-04T20:38:40.188Z,1.35
2022-12-04T20:43:43.729Z,1.38
2022-12-04T20:48:49.830Z,1.38
2022-12-04T20:53:55.533Z,1.35
2022-12-04T20:59:00.507Z,1.33
2022-12-04T21:04:04.189Z,1.35
2022-12-04T21:09:13.052Z,1.36
2022-12-04T21:14:56.761Z,1.33
2022-12-04T21:20:05.843Z,1.30
2022-12-04T21:25:10.598Z,1.33
2022-12-04T21:30:15.443Z,1.30
2022-12-04T21:35:18.245Z,1.28
2022-12-04T21:40:21.397Z,1.26
2022-12-04T21:45:24.425Z,1.27
2022-12-04T21:50:28.185Z,1.24
2022-12-04T21:55:30.963Z,1.24
2022-12-04T22:00:35.940Z,1.24
2022-12-04T22:05:39.542Z,1.26
2022-12-04T22:10:45.305Z,1.26
2022-12-04T22:15:48.629Z,1.25
2022-12-04T22:20:51.667Z,1.29
2022-12-04T22:25:54.892Z,1.32
2022-12-04T22:31:06.784Z,1.28
2022-12-04T22:36:13.302Z,1.22
2022-12-04T22:41:20.981Z,1.20
2022-12-04T22:46:25.467Z,1.23
2022-12-04T22:51:28.732Z,1.18
2022-12-04T22:56:32.095Z,1.13
2022-12-04T23:01:34.933Z,1.11
2022-12-04T23:06:38.121Z,1.10
2022-12-04T23:11:41.215Z,1.08
2022-12-04T23:16:44.834Z,1.04
2022-12-04T23:21:56.608Z,1.09
2022-12-04T23:27:02.477Z,1.11
2022-12-04T23:32:05.724Z,1.13
2022-12-04T23:37:09.017Z,1.12
2022-12-04T23:42:11.976Z,1.11
2022-12-04T23:47:14.915Z,1.12
2022-12-04T23:52:19.826Z,1.17
2022-12-04T23:57:22.647Z,1.17
